PST,Max TemperatureF,Mean TemperatureF,Min TemperatureF,Max Dew PointF,MeanDew PointF,Min DewpointF,Max Humidity, Mean Humidity, Min Humidity, Max Sea Level PressureIn, Mean Sea Level PressureIn, Min Sea Level PressureIn, Max VisibilityMiles, Mean VisibilityMiles, Min VisibilityMiles, Max Wind SpeedMPH, Mean Wind SpeedMPH, Max Gust SpeedMPH,PrecipitationIn, CloudCover, Events, WindDirDegrees
2012-11-1,64,59,54,61,56,54,100,92,84,30.05,30.03,30.00,10,6,0,9,2,10,0.13,8,Fog-Rain,215
2012-11-2,67,58,49,54,51,48,100,78,56,30.09,30.06,30.03,10,7,0,10,2,14,0.00,4,Fog,273
2012-11-3,78,62,46,51,48,42,93,65,36,30.14,30.10,30.06,10,10,7,12,3,21,0.00,0,,315
2012-11-4,84,67,50,55,49,47,86,59,31,30.19,30.14,30.09,10,10,10,8,2,10,0.00,0,,300
2012-11-5,93,73,52,51,45,34,77,45,13,30.13,30.07,30.01,10,10,10,7,3,9,0.00,0,,325
2012-11-6,82,66,49,53,47,37,96,58,20,30.07,30.04,29.99,10,7,0,10,2,15,0.00,0,Fog,177
2012-11-7,60,56,51,54,52,51,100,90,80,30.08,30.04,29.98,10,5,0,9,2,14,T,8,Fog,195
2012-11-8,62,52,42,52,46,40,96,72,48,30.01,29.96,29.92,10,9,2,15,4,21,0.13,6,Rain,225
2012-11-9,57,49,40,45,41,32,100,73,45,30.02,29.95,29.92,10,9,2,17,5,23,0.15,4,Rain,290
2012-11-10,62,50,37,42,37,34,92,64,36,30.27,30.13,30.03,10,10,10,15,5,18,0.00,1,,287
2012-11-11,62,48,34,39,35,28,92,60,27,30.39,30.34,30.28,10,10,10,10,3,21,0.00,0,,302
2012-11-12,66,51,36,43,36,30,85,57,28,30.37,30.31,30.23,10,10,10,12,3,14,0.00,0,,297
2012-11-13,76,59,42,40,34,30,76,49,21,30.24,30.14,30.06,10,10,8,10,4,13,0.00,0,,37
2012-11-14,78,62,46,40,37,34,66,45,23,30.09,30.05,30.01,10,10,10,9,3,12,0.00,0,,50
2012-11-15,67,56,45,51,43,36,80,56,32,30.02,30.00,29.96,10,10,10,16,4,22,0.00,0,,286
2012-11-16,64,57,49,56,52,43,93,82,71,30.02,29.96,29.88,10,9,2,25,3,85,0.23,7,Rain,16
2012-11-17,60,57,54,59,55,49,100,86,72,30.04,29.95,29.86,10,6,0,16,7,21,0.45,8,Fog-Rain,174
2012-11-18,62,55,47,54,50,43,93,72,51,30.19,30.10,30.04,10,8,1,9,3,13,0.42,5,Rain,300
2012-11-19,65,55,44,50,44,41,92,68,43,30.26,30.22,30.19,10,10,10,10,2,15,0.00,1,,286
2012-11-20,65,57,48,55,51,45,93,79,65,30.21,30.15,30.10,10,10,5,9,2,18,T,7,Rain,217
2012-11-21,65,57,48,57,54,46,93,83,73,30.20,30.14,30.08,10,7,1,9,3,30,0.36,6,Rain,177
2012-11-22,69,56,43,48,45,41,96,68,40,30.25,30.20,30.16,10,10,10,9,3,15,0.00,0,,341
2012-11-23,76,59,42,49,44,40,89,61,33,30.23,30.18,30.12,10,10,10,8,3,10,0.00,0,,340
2012-11-24,74,59,43,50,45,41,89,64,38,30.16,30.09,30.01,10,10,10,8,2,12,0.00,0,,270
2012-11-25,65,53,41,52,47,40,93,77,60,30.02,29.97,29.92,10,10,8,7,2,21,0.00,0,,260
2012-11-26,60,51,41,50,47,40,100,81,62,30.09,30.05,29.97,10,10,7,15,2,20,0.01,3,,244
2012-11-27,61,55,48,50,48,45,93,79,64,30.14,30.09,30.03,10,9,5,14,2,21,0.00,3,,292
2012-11-28,62,55,48,60,52,45,100,89,77,30.09,29.98,29.91,10,8,2,32,6,43,0.46,5,Rain,194
2012-11-29,60,55,49,58,54,49,100,88,75,30.09,30.03,29.94,10,9,2,17,3,24,0.05,6,Rain,314
2012-11-30,62,59,56,61,57,54,100,92,84,30.07,29.96,29.90,10,6,1,22,7,30,2.07,8,Rain,160